Time;durP1;ratioP1;P1;durP2;ratioP2;P2;SDS_P1;SDS_P2;PMS_P1;PMS_P2;Temp;Humidity;BMP_temperature;BMP_pressure;BME280_temperature;BME280_humidity;BME280_pressure;Samples;Min_cycle;Max_cycle;Signal;HPM_P1;HPM_P2
2022/02/17 00:00:46;;;;;;;;;0.00;0.00;;;;;14.85;73.80;99988.25;5057406;28;45641;-88
2022/02/17 00:03:12;;;;;;;;;0.00;0.00;;;;;15.02;73.75;100003.22;5057227;28;45732;-81
2022/02/17 00:08:59;;;;;;;;;0.00;0.00;;;;;15.02;73.57;100008.50;5056900;28;45708;-82
2022/02/17 00:11:24;;;;;;;;;0.00;0.00;;;;;15.03;73.93;100002.25;5057226;28;45825;-82
2022/02/17 00:13:50;;;;;;;;;0.00;0.00;;;;;14.99;73.63;99993.84;5056957;28;46461;-82
2022/02/17 00:16:16;;;;;;;;;0.00;0.00;;;;;15.05;73.69;100018.78;5057931;28;45638;-82
2022/02/17 00:18:42;;;;;;;;;0.00;0.00;;;;;14.96;73.63;99996.75;5057505;28;45682;-85
2022/02/17 00:21:07;;;;;;;;;0.00;0.00;;;;;15.07;73.86;100012.34;5057700;28;46884;-83
2022/02/17 00:23:33;;;;;;;;;0.00;0.00;;;;;14.96;73.98;99994.13;5057988;28;45653;-82
2022/02/17 00:25:58;;;;;;;;;0.00;0.00;;;;;14.79;74.40;99971.22;5058233;28;45435;-82
2022/02/17 00:28:23;;;;;;;;;0.00;0.00;;;;;14.89;74.37;100000.16;5057910;28;45673;-83
2022/02/17 00:30:49;;;;;;;;;0.00;0.00;;;;;14.90;74.18;100010.53;5057369;28;45502;-82
2022/02/17 00:33:14;;;;;;;;;0.00;0.00;;;;;14.93;74.35;99997.06;5057550;28;46417;-83
2022/02/17 00:39:01;;;;;;;;;0.00;0.00;;;;;14.91;75.13;100033.31;5057103;28;45581;-82
2022/02/17 00:41:27;;;;;;;;;0.00;0.00;;;;;14.86;75.43;100029.47;5057256;28;45664;-82
2022/02/17 00:43:52;;;;;;;;;0.00;0.00;;;;;14.93;76.64;100054.28;5057045;28;45749;-82
2022/02/17 00:46:17;;;;;;;;;0.00;0.00;;;;;14.86;77.45;100064.59;5056603;28;45526;-82
2022/02/17 00:48:43;;;;;;;;;0.00;0.00;;;;;14.74;77.33;100047.31;5056338;28;45588;-82
2022/02/17 00:54:30;;;;;;;;;0.00;0.00;;;;;14.69;78.44;100075.94;5056084;28;46013;-83
2022/02/17 00:56:55;;;;;;;;;0.00;0.00;;;;;14.66;78.61;100082.34;5055486;28;45688;-81
2022/02/17 00:59:21;;;;;;;;;0.00;0.00;;;;;14.55;78.21;100082.56;5056805;28;45562;-82
2022/02/17 01:01:47;;;;;;;;;0.00;0.00;;;;;14.59;79.41;100097.09;5056699;28;45487;-83
2022/02/17 01:04:16;;;;;;;;;0.00;0.00;;;;;14.59;79.95;100114.72;5056614;28;45877;-83
2022/02/17 01:06:42;;;;;;;;;0.00;0.00;;;;;14.62;79.26;100096.81;5056870;28;45589;-82
2022/02/17 01:09:10;;;;;;;;;0.00;0.00;;;;;14.62;79.45;100090.72;5056354;28;45643;-83
2022/02/17 01:11:36;;;;;;;;;0.00;0.00;;;;;14.60;78.87;100097.94;5056664;28;45717;-80
2022/02/17 01:14:02;;;;;;;;;0.00;0.00;;;;;14.60;80.00;100114.59;5054551;28;47616;-82
2022/02/17 01:16:28;;;;;;;;;0.00;0.00;;;;;14.52;78.56;100103.91;5056478;28;45606;-82
2022/02/17 01:18:53;;;;;;;;;0.00;0.00;;;;;14.53;78.80;100100.31;5038062;28;45479;-82
2022/02/17 01:24:40;;;;;;;;;0.00;0.00;;;;;14.62;78.80;100124.97;5056137;28;45676;-83
2022/02/17 01:27:06;;;;;;;;;0.00;0.00;;;;;14.62;78.74;100111.81;5056145;28;45798;-81
2022/02/17 01:29:32;;;;;;;;;0.00;0.00;;;;;14.61;79.03;100107.50;5056194;28;45614;-84
2022/02/17 01:31:57;;;;;;;;;0.00;0.00;;;;;14.36;78.89;100079.97;5055704;28;46543;-83
2022/02/17 01:34:23;;;;;;;;;0.00;0.00;;;;;14.37;79.57;100110.66;5055605;28;45578;-82
2022/02/17 01:36:48;;;;;;;;;0.00;0.00;;;;;14.54;78.75;100167.06;5055972;28;45695;-81
2022/02/17 01:39:13;;;;;;;;;0.00;0.00;;;;;14.44;78.78;100142.53;5055663;28;45823;-81
2022/02/17 01:41:39;;;;;;;;;0.00;0.00;;;;;14.30;78.94;100126.19;5055797;28;45521;-82
2022/02/17 01:44:04;;;;;;;;;0.00;0.00;;;;;14.31;79.11;100142.81;5055636;28;46327;-82
2022/02/17 01:46:38;;;;;;;;;0.00;0.00;;;;;14.45;78.80;100174.03;5037677;28;45707;-82
2022/02/17 01:49:05;;;;;;;;;0.00;0.00;;;;;14.42;78.73;100160.28;5056184;28;45507;-80
2022/02/17 01:54:53;;;;;;;;;0.00;0.00;;;;;14.38;78.07;100157.13;5055743;28;46002;-81
2022/02/17 01:57:25;;;;;;;;;0.00;0.00;;;;;14.39;77.59;100165.88;5055961;28;45602;-82
2022/02/17 01:59:50;;;;;;;;;0.00;0.00;;;;;14.39;76.97;100171.97;5056253;28;45824;-81
2022/02/17 02:02:16;;;;;;;;;0.00;0.00;;;;;14.35;76.85;100167.09;5055748;28;46622;-84
2022/02/17 02:04:43;;;;;;;;;0.00;0.00;;;;;14.41;76.24;100179.75;5055825;28;46702;-84
2022/02/17 02:07:09;;;;;;;;;0.00;0.00;;;;;14.35;76.08;100182.91;5055792;28;45861;-84
2022/02/17 02:09:36;;;;;;;;;0.50;0.00;;;;;14.30;75.68;100170.97;5055794;28;45693;-82
2022/02/17 02:12:03;;;;;;;;;0.75;0.00;;;;;14.39;75.20;100181.69;5055713;28;46547;-85
2022/02/17 02:14:29;;;;;;;;;1.00;0.00;;;;;14.38;74.84;100195.81;5055864;28;47761;-83
2022/02/17 02:16:56;;;;;;;;;0.00;0.00;;;;;14.36;74.40;100169.56;5055987;28;45637;-81
2022/02/17 02:19:22;;;;;;;;;0.00;0.00;;;;;14.39;74.04;100216.78;5055676;28;45590;-83
2022/02/17 02:25:10;;;;;;;;;0.75;0.50;;;;;14.40;73.18;100197.34;5055322;28;45818;-83
2022/02/17 02:27:35;;;;;;;;;0.00;0.00;;;;;14.25;72.96;100181.13;5055720;28;45697;-83
2022/02/17 02:30:01;;;;;;;;;1.00;0.00;;;;;14.34;73.07;100186.53;5055834;28;45748;-82
2022/02/17 02:32:26;;;;;;;;;0.00;0.00;;;;;14.37;72.95;100196.78;5055784;28;46021;-83
2022/02/17 02:34:52;;;;;;;;;0.25;0.00;;;;;14.27;72.73;100188.88;5037440;28;46929;-83
2022/02/17 02:37:17;;;;;;;;;0.50;0.00;;;;;14.21;72.82;100214.00;5055636;28;45668;-82
2022/02/17 02:39:42;;;;;;;;;1.00;0.00;;;;;14.23;71.67;100211.25;5055116;28;45766;-81
2022/02/17 02:42:08;;;;;;;;;0.50;0.00;;;;;14.24;71.55;100215.53;5055142;28;46466;-84
2022/02/17 02:44:34;;;;;;;;;1.25;0.25;;;;;14.25;70.80;100239.09;5055112;28;46319;-82
2022/02/17 02:47:00;;;;;;;;;0.75;0.75;;;;;13.98;68.94;100185.50;5036767;28;45634;-82
2022/02/17 02:49:26;;;;;;;;;0.00;0.00;;;;;14.05;67.89;100216.38;5036963;28;45545;-81
2022/02/17 02:55:12;;;;;;;;;3.25;0.25;;;;;14.13;65.16;100287.66;5055169;28;45638;-83
2022/02/17 02:57:38;;;;;;;;;0.75;0.75;;;;;14.11;65.68;100238.72;5054861;28;45547;-82
2022/02/17 03:00:05;;;;;;;;;0.75;0.75;;;;;14.06;66.09;100222.50;5055065;28;45571;-81
2022/02/17 03:02:30;;;;;;;;;1.75;1.00;;;;;14.03;65.67;100197.28;5054424;28;45540;-81
2022/02/17 03:04:56;;;;;;;;;1.50;0.00;;;;;14.00;65.42;100225.69;5054835;28;45591;-82
2022/02/17 03:07:21;;;;;;;;;1.50;1.00;;;;;13.99;65.11;100222.22;5054886;28;45476;-84
2022/02/17 03:09:47;;;;;;;;;1.50;1.00;;;;;13.98;65.12;100252.16;5036849;28;45565;-82
2022/02/17 03:12:12;;;;;;;;;1.00;0.75;;;;;13.97;65.23;100221.53;5055020;28;45465;-82
2022/02/17 03:14:38;;;;;;;;;1.00;0.25;;;;;14.00;65.37;100239.69;5054920;28;45570;-81
2022/02/17 03:17:03;;;;;;;;;1.00;1.00;;;;;13.76;65.35;100194.53;5054142;28;45808;-81
2022/02/17 03:19:29;;;;;;;;;1.75;1.00;;;;;13.95;65.00;100265.63;5054730;28;45646;-82
2022/02/17 03:25:16;;;;;;;;;2.50;1.00;;;;;13.93;64.07;100230.66;5054024;28;46154;-81
2022/02/17 03:27:43;;;;;;;;;1.00;1.00;;;;;13.83;64.01;100245.66;5054139;28;45775;-82
2022/02/17 03:30:11;;;;;;;;;2.75;1.00;;;;;13.82;64.04;100218.47;5054534;28;45722;-81
2022/02/17 03:32:37;;;;;;;;;3.25;1.00;;;;;13.75;63.48;100253.44;5054263;28;45691;-81
2022/02/17 03:35:05;;;;;;;;;0.50;0.00;;;;;13.73;63.13;100250.91;5054079;28;46005;-82
2022/02/17 03:40:52;;;;;;;;;2.00;1.00;;;;;13.79;63.12;100292.50;5048087;28;45864;-82
2022/02/17 03:43:18;;;;;;;;;3.50;1.25;;;;;13.78;62.61;100269.75;5036115;28;47575;-84
2022/02/17 03:45:43;;;;;;;;;2.50;1.00;;;;;13.74;62.73;100254.38;5035943;28;47112;-83
2022/02/17 03:48:09;;;;;;;;;3.00;1.00;;;;;13.70;62.29;100250.38;5054070;28;45620;-82
2022/02/17 03:50:34;;;;;;;;;4.00;2.00;;;;;13.77;62.88;100249.66;5054711;28;45839;-82
2022/02/17 03:53:00;;;;;;;;;2.00;2.00;;;;;13.83;62.12;100279.88;5036006;28;47364;-82
2022/02/17 03:55:25;;;;;;;;;2.00;1.50;;;;;13.82;62.66;100278.22;5054042;28;45800;-83
2022/02/17 03:57:52;;;;;;;;;2.75;1.25;;;;;13.80;62.78;100288.06;5054139;28;45661;-82
2022/02/17 04:00:17;;;;;;;;;1.75;1.00;;;;;13.79;63.16;100300.41;5035903;28;45636;-83
2022/02/17 04:02:43;;;;;;;;;1.25;1.00;;;;;13.83;63.21;100287.78;5054472;28;46295;-82
2022/02/17 04:05:08;;;;;;;;;4.00;2.00;;;;;13.71;63.06;100300.25;5054263;28;45783;-81
2022/02/17 04:10:56;;;;;;;;;2.25;1.50;;;;;13.74;63.33;100318.41;5072008;28;45335;-84
2022/02/17 04:13:21;;;;;;;;;3.50;1.50;;;;;13.69;63.22;100318.00;5056329;28;46793;-85
2022/02/17 04:15:47;;;;;;;;;3.25;1.00;;;;;13.57;63.54;100297.16;5054284;28;45832;-80
2022/02/17 04:18:12;;;;;;;;;2.25;2.00;;;;;13.57;62.22;100345.38;5035491;28;45634;-83
2022/02/17 04:20:38;;;;;;;;;5.00;2.00;;;;;13.64;60.90;100366.75;5054180;28;45879;-86
2022/02/17 04:23:04;;;;;;;;;5.00;2.50;;;;;13.62;61.23;100350.25;5035616;28;46347;-84
2022/02/17 04:25:29;;;;;;;;;0.50;0.00;;;;;13.64;60.88;100338.63;5053737;28;46118;-83
2022/02/17 04:27:55;;;;;;;;;4.25;3.00;;;;;13.58;60.86;100339.16;5053877;28;45744;-83
2022/02/17 04:30:20;;;;;;;;;2.75;1.00;;;;;13.57;59.33;100410.34;5054141;28;45689;-85
2022/02/17 04:32:46;;;;;;;;;2.00;1.00;;;;;13.46;59.38;100363.91;5055226;28;46451;-85
2022/02/17 04:35:11;;;;;;;;;5.00;2.25;;;;;13.19;58.78;100340.81;5057198;28;45744;-85
2022/02/17 04:43:42;;;;;;;;;3.50;1.25;;;;;13.34;59.09;100375.50;5057152;28;45699;-83
2022/02/17 04:46:08;;;;;;;;;5.00;3.00;;;;;13.39;59.10;100424.13;5056938;28;45748;-84
2022/02/17 04:48:35;;;;;;;;;4.00;2.25;;;;;13.38;58.00;100417.22;5057818;28;45612;-82
2022/02/17 04:51:00;;;;;;;;;5.75;2.50;;;;;13.33;58.24;100381.75;5057782;28;45787;-84
2022/02/17 04:53:27;;;;;;;;;6.75;2.25;;;;;13.15;57.26;100394.66;5057006;28;46342;-85
2022/02/17 04:55:52;;;;;;;;;1.25;0.00;;;;;13.31;57.81;100423.13;5057003;28;46227;-82
2022/02/17 04:58:18;;;;;;;;;2.75;2.50;;;;;13.26;57.23;100430.59;5056644;28;45479;-84
2022/02/17 05:00:48;;;;;;;;;7.75;3.00;;;;;13.23;56.67;100438.72;5057042;28;45560;-82
2022/02/17 05:03:15;;;;;;;;;4.50;3.00;;;;;12.98;57.05;100403.13;5057232;28;46198;-85
2022/02/17 05:05:40;;;;;;;;;9.00;5.00;;;;;13.17;56.95;100432.19;5056829;28;45656;-83
2022/02/17 05:11:27;;;;;;;;;4.00;3.00;;;;;13.05;56.06;100451.63;5056825;28;45626;-82
2022/02/17 05:13:53;;;;;;;;;4.25;3.00;;;;;13.08;56.50;100463.66;5037862;28;47435;-82
2022/02/17 05:16:18;;;;;;;;;3.25;1.00;;;;;13.11;55.73;100447.63;5056752;28;46341;-84
2022/02/17 05:18:44;;;;;;;;;8.00;2.75;;;;;12.70;55.78;100398.50;5056556;28;45688;-81
2022/02/17 05:21:09;;;;;;;;;6.75;4.00;;;;;12.74;55.30;100410.44;5056771;28;45902;-83
2022/02/17 05:23:58;;;;;;;;;4.50;2.50;;;;;12.78;55.90;100452.13;5057289;28;46319;-85
2022/02/17 05:26:23;;;;;;;;;4.00;2.25;;;;;12.52;55.76;100406.94;5055718;28;46037;-84
2022/02/17 05:28:49;;;;;;;;;4.75;2.00;;;;;13.01;55.69;100487.00;5056287;28;45534;-85
2022/02/17 05:31:14;;;;;;;;;5.75;2.50;;;;;12.89;55.77;100473.09;5056798;28;45641;-82
2022/02/17 05:33:40;;;;;;;;;5.25;3.00;;;;;12.50;55.04;100427.28;5056202;28;45580;-84
2022/02/17 05:36:05;;;;;;;;;6.00;3.00;;;;;12.98;55.32;100531.97;5056232;28;46301;-84
2022/02/17 05:41:53;;;;;;;;;4.25;2.25;;;;;12.94;55.40;100514.78;5054502;28;45811;-84
2022/02/17 05:44:19;;;;;;;;;7.00;3.25;;;;;12.87;54.87;100484.69;5055697;28;45965;-84
2022/02/17 05:46:45;;;;;;;;;5.00;3.25;;;;;12.94;55.33;100523.53;5037828;28;45637;-85
2022/02/17 05:49:11;;;;;;;;;5.75;3.00;;;;;12.92;55.17;100520.16;5055540;28;45536;-86
2022/02/17 05:51:36;;;;;;;;;7.25;3.00;;;;;12.79;54.63;100518.69;5056299;28;45540;-85
2022/02/17 05:54:02;;;;;;;;;8.25;3.00;;;;;12.87;54.78;100513.63;5056238;28;46607;-85
2022/02/17 05:56:27;;;;;;;;;3.75;2.50;;;;;12.85;55.50;100539.19;5055588;28;46118;-83
2022/02/17 05:58:53;;;;;;;;;8.50;3.75;;;;;12.82;55.46;100526.31;5055953;28;45695;-84
2022/02/17 06:01:18;;;;;;;;;7.00;2.50;;;;;12.78;55.78;100498.59;5056193;28;45618;-83
2022/02/17 06:03:43;;;;;;;;;3.50;3.00;;;;;12.82;55.95;100500.00;5056079;28;46578;-83
2022/02/17 06:06:09;;;;;;;;;6.00;2.50;;;;;12.82;56.60;100516.63;5055774;28;46623;-82
2022/02/17 06:11:56;;;;;;;;;7.50;4.25;;;;;12.73;56.83;100521.81;5056322;28;45590;-86
2022/02/17 06:14:21;;;;;;;;;7.00;4.00;;;;;12.70;57.35;100535.19;5056459;28;45810;-84
2022/02/17 06:16:55;;;;;;;;;9.25;5.25;;;;;12.72;57.24;100546.41;5060765;28;46221;-86
2022/02/17 06:19:21;;;;;;;;;6.50;3.25;;;;;12.69;57.22;100554.53;5046057;28;45605;-87
2022/02/17 06:21:49;;;;;;;;;7.25;3.00;;;;;12.69;57.57;100554.53;5049178;28;45790;-86
2022/02/17 06:24:14;;;;;;;;;6.00;3.75;;;;;12.33;57.73;100482.97;5063704;28;46809;-86
2022/02/17 06:26:39;;;;;;;;;7.25;4.50;;;;;12.42;58.44;100511.13;5038527;28;47359;-85
2022/02/17 06:29:29;;;;;;;;;;;;;;;;;;;;;
2022/02/17 06:31:55;;;;;;;;;7.00;3.00;;;;;12.39;58.54;100548.16;5055526;28;69060;-84
2022/02/17 06:34:21;;;;;;;;;6.25;5.00;;;;;12.59;59.02;100572.84;5056163;28;46108;-83
2022/02/17 06:36:49;;;;;;;;;4.75;3.50;;;;;12.36;58.94;100545.78;5055979;28;45900;-83
2022/02/17 06:39:15;;;;;;;;;4.50;3.00;;;;;12.56;59.04;100588.88;5055875;28;45786;-83
2022/02/17 06:41:41;;;;;;;;;8.25;5.00;;;;;12.45;58.92;100592.34;5056569;28;45559;-85
2022/02/17 06:44:07;;;;;;;;;6.00;4.00;;;;;12.46;58.92;100617.69;5055511;28;45668;-83
2022/02/17 06:46:35;;;;;;;;;10.25;4.25;;;;;12.43;58.85;100604.75;5056049;28;45656;-84
2022/02/17 06:49:01;;;;;;;;;5.75;4.00;;;;;12.29;58.68;100570.03;5055931;28;45634;-84
2022/02/17 06:51:27;;;;;;;;;7.25;4.00;;;;;12.33;58.69;100580.19;5055801;28;45761;-83
2022/02/17 06:57:21;;;;;;;;;4.00;4.00;;;;;12.38;58.30;100612.19;5054584;28;45979;-84
2022/02/17 06:59:51;;;;;;;;;11.00;6.50;;;;;12.34;58.13;100600.25;5055505;28;45863;-82
2022/02/17 07:02:23;;;;;;;;;10.00;4.00;;;;;12.25;58.55;100582.59;5055694;28;45586;-83
2022/02/17 07:04:48;;;;;;;;;3.00;2.00;;;;;12.28;58.33;100597.25;5055042;28;46615;-83
2022/02/17 07:07:14;;;;;;;;;10.00;4.00;;;;;12.23;58.34;100621.25;5055441;28;46378;-83
2022/02/17 07:09:39;;;;;;;;;8.50;4.50;;;;;12.29;57.97;100623.41;5055411;28;45633;-82
2022/02/17 07:12:05;;;;;;;;;8.25;4.00;;;;;12.07;58.02;100589.25;5057158;28;45573;-82
2022/02/17 07:14:30;;;;;;;;;12.00;3.75;;;;;12.18;57.96;100619.00;5058420;28;45581;-84
2022/02/17 07:16:58;;;;;;;;;8.50;6.00;;;;;12.19;58.09;100636.44;5042090;28;47213;-82
2022/02/17 07:19:24;;;;;;;;;7.00;5.00;;;;;12.20;57.70;100630.19;5061488;28;45665;-82
2022/02/17 07:21:50;;;;;;;;;11.00;4.75;;;;;12.09;58.21;100624.94;5063023;28;45516;-82
2022/02/17 07:27:37;;;;;;;;;8.75;4.25;;;;;12.09;58.10;100645.94;5065059;28;45802;-83
2022/02/17 07:30:03;;;;;;;;;13.00;3.25;;;;;12.15;58.01;100652.53;5067176;28;45601;-84
2022/02/17 07:32:29;;;;;;;;;3.00;2.00;;;;;12.12;58.24;100668.53;5073927;28;45279;-82
2022/02/17 07:34:54;;;;;;;;;3.00;2.00;;;;;12.11;58.66;100666.84;5075166;28;45557;-82
2022/02/17 07:37:19;;;;;;;;;7.75;4.00;;;;;12.12;58.74;100677.25;5056776;28;47004;-83
2022/02/17 07:39:45;;;;;;;;;10.00;5.00;;;;;11.99;58.95;100652.84;5075472;28;44993;-83
2022/02/17 07:42:10;;;;;;;;;8.75;7.50;;;;;12.10;58.91;100673.88;5077251;28;45111;-81
2022/02/17 07:44:36;;;;;;;;;12.25;5.00;;;;;12.04;59.03;100657.75;5070827;28;45552;-80
2022/02/17 07:47:01;;;;;;;;;11.25;7.00;;;;;12.16;59.46;100681.31;5076799;28;45241;-81
2022/02/17 07:49:27;;;;;;;;;7.50;3.00;;;;;11.92;59.57;100654.28;5077850;28;45058;-81
2022/02/17 07:51:52;;;;;;;;;10.50;8.75;;;;;12.20;59.70;100695.03;5065982;28;45161;-82
2022/02/17 07:57:40;;;;;;;;;12.25;7.25;;;;;12.15;59.80;100670.91;5063863;28;46032;-82
2022/02/17 08:00:09;;;;;;;;;8.25;4.50;;;;;12.27;59.81;100685.72;5060915;28;45585;-82
2022/02/17 08:02:34;;;;;;;;;9.00;6.50;;;;;12.24;59.89;100693.84;5057546;28;45771;-82
2022/02/17 08:05:01;;;;;;;;;5.50;4.25;;;;;12.28;59.53;100699.72;5057502;28;46563;-81
2022/02/17 08:07:27;;;;;;;;;6.75;4.00;;;;;12.19;59.69;100667.09;5059417;28;46060;-82
2022/02/17 08:09:53;;;;;;;;;9.50;5.00;;;;;12.28;59.70;100694.44;5070958;28;44988;-81
2022/02/17 08:12:19;;;;;;;;;13.75;8.25;;;;;12.28;59.90;100684.78;5078743;28;45600;-81
2022/02/17 08:14:44;;;;;;;;;8.00;6.75;;;;;12.24;59.74;100688.59;5059912;28;47603;-82
2022/02/17 08:17:10;;;;;;;;;8.25;5.75;;;;;12.31;59.66;100699.50;5080028;28;45035;-81
2022/02/17 08:19:35;;;;;;;;;8.75;5.00;;;;;12.11;59.95;100688.69;5081346;28;45768;-83
2022/02/17 08:22:02;;;;;;;;;8.50;3.75;;;;;12.30;59.83;100696.03;5066568;28;45472;-81
2022/02/17 08:27:50;;;;;;;;;7.25;3.75;;;;;12.28;59.73;100745.19;5058017;28;45752;-83
2022/02/17 08:30:17;;;;;;;;;9.25;5.25;;;;;12.42;59.65;100759.91;5043304;28;45765;-82
2022/02/17 08:32:42;;;;;;;;;10.50;6.75;;;;;12.31;59.30;100744.97;5061004;28;45573;-83
2022/02/17 08:35:12;;;;;;;;;8.50;5.00;;;;;12.43;59.59;100770.31;5060214;28;45408;-82
2022/02/17 08:37:39;;;;;;;;;9.00;6.50;;;;;12.47;59.48;100757.78;5059136;28;46212;-84
2022/02/17 08:40:07;;;;;;;;;9.50;6.75;;;;;12.30;59.25;100732.81;5057413;28;45663;-82
2022/02/17 08:42:33;;;;;;;;;16.50;7.25;;;;;12.49;59.09;100763.75;5057198;28;45602;-81
2022/02/17 08:44:59;;;;;;;;;11.00;7.75;;;;;12.48;59.06;100755.03;5056848;28;45503;-82
2022/02/17 08:47:24;;;;;;;;;11.50;8.00;;;;;12.48;58.95;100770.78;5056906;28;45618;-80
2022/02/17 08:49:49;;;;;;;;;13.50;5.50;;;;;12.44;59.02;100771.16;5056560;28;45630;-82
2022/02/17 08:52:16;;;;;;;;;12.00;7.75;;;;;12.42;59.10;100757.28;5057105;28;45594;-82
2022/02/17 08:58:03;;;;;;;;;9.50;6.50;;;;;12.52;59.05;100766.16;5057034;28;45737;-79
2022/02/17 09:00:28;;;;;;;;;3.50;3.00;;;;;12.49;59.08;100763.75;5057548;28;45617;-84
2022/02/17 09:02:54;;;;;;;;;6.00;4.50;;;;;12.51;58.83;100773.19;5059189;28;45862;-82
2022/02/17 09:05:20;;;;;;;;;10.25;7.00;;;;;12.55;58.99;100763.28;5059441;28;45606;-82
2022/02/17 09:13:51;;;;;;;;;9.50;4.75;;;;;12.64;58.49;100770.44;5058702;28;45637;-81
2022/02/17 09:16:16;;;;;;;;;18.25;7.75;;;;;12.61;58.67;100763.66;5057113;28;46597;-83
2022/02/17 09:18:42;;;;;;;;;14.25;5.00;;;;;12.72;58.36;100760.19;5055341;28;46943;-80
2022/02/17 09:21:07;;;;;;;;;9.25;4.50;;;;;12.77;58.01;100791.38;5057599;28;45580;-83
2022/02/17 09:23:34;;;;;;;;;8.25;4.50;;;;;12.70;58.46;100779.66;5057052;28;45524;-83
2022/02/17 09:26:00;;;;;;;;;12.75;4.75;;;;;12.76;58.29;100777.41;5056027;28;47520;-81
2022/02/17 09:28:25;;;;;;;;;12.75;8.00;;;;;12.80;57.94;100789.34;5055873;28;45625;-81
2022/02/17 09:30:51;;;;;;;;;17.50;9.00;;;;;12.85;58.38;100795.06;5020899;28;45487;-79
2022/02/17 09:33:16;;;;;;;;;9.75;7.00;;;;;12.83;57.94;100783.03;5056341;28;45684;-78
2022/02/17 09:35:42;;;;;;;;;1.00;0.00;;;;;12.90;58.08;100797.38;5055623;28;46402;-77
2022/02/17 09:38:07;;;;;;;;;10.25;5.50;;;;;12.92;58.16;100861.19;5055174;28;46159;-80
2022/02/17 09:40:32;;;;;;;;;11.00;5.00;;;;;12.86;57.82;100815.16;5055702;28;45523;-81
2022/02/17 09:42:58;;;;;;;;;16.25;8.50;;;;;12.91;57.42;100849.00;5055651;28;45637;-77
2022/02/17 09:45:25;;;;;;;;;14.50;8.00;;;;;12.86;57.97;100809.91;5055913;28;46465;-78
2022/02/17 09:47:51;;;;;;;;;12.25;8.50;;;;;12.93;57.82;100821.63;5036697;28;47237;-79
2022/02/17 09:50:17;;;;;;;;;8.50;5.25;;;;;12.87;57.80;100826.53;5055508;28;45775;-79
2022/02/17 09:52:44;;;;;;;;;10.00;7.00;;;;;12.94;57.98;100836.47;5055665;28;45843;-79
2022/02/17 09:58:30;;;;;;;;;13.50;9.00;;;;;12.98;57.65;100839.69;5055188;28;45682;-78
2022/02/17 10:00:56;;;;;;;;;10.50;5.00;;;;;12.92;57.99;100819.94;5055529;28;45606;-79
2022/02/17 10:03:36;;;;;;;;;7.25;6.00;;;;;12.98;57.78;100844.94;5055171;28;45613;-78
2022/02/17 10:06:07;;;;;;;;;7.25;5.00;;;;;13.05;57.69;100846.16;5054942;28;46441;-78
2022/02/17 10:08:33;;;;;;;;;10.25;7.50;;;;;13.12;57.64;100849.19;5055326;28;46140;-78
2022/02/17 10:10:59;;;;;;;;;11.25;4.25;;;;;13.20;57.46;100847.63;5055547;28;45884;-78
2022/02/17 10:13:24;;;;;;;;;8.25;5.25;;;;;13.24;57.28;100853.47;5037268;28;45967;-77
2022/02/17 10:15:58;;;;;;;;;8.00;4.50;;;;;13.27;57.25;100855.88;5055215;28;46348;-79
2022/02/17 10:18:27;;;;;;;;;9.00;4.00;;;;;13.27;56.84;100863.75;5055207;28;45886;-78
2022/02/17 10:21:12;;;;;;;;;8.75;5.00;;;;;13.29;55.76;100877.63;5055244;28;45821;-79
2022/02/17 10:23:46;;;;;;;;;6.75;3.50;;;;;13.28;56.32;100873.34;5037133;28;45824;-79
2022/02/17 10:26:27;;;;;;;;;6.00;4.50;;;;;13.32;56.11;100880.03;5054841;28;45515;-78
2022/02/17 10:28:55;;;;;;;;;10.25;4.50;;;;;13.35;56.40;100877.97;5036745;28;48089;-78
2022/02/17 10:31:29;;;;;;;;;3.00;1.75;;;;;13.40;55.88;100896.03;5054582;28;45534;-78
2022/02/17 10:33:58;;;;;;;;;11.00;5.25;;;;;13.41;55.67;100871.41;5054883;28;45795;-78
2022/02/17 10:36:38;;;;;;;;;9.75;5.00;;;;;13.42;56.07;100881.81;5054853;28;45578;-78
2022/02/17 10:39:22;;;;;;;;;6.50;4.00;;;;;13.47;55.76;100886.72;5053800;28;48724;-78
2022/02/17 10:41:59;;;;;;;;;13.25;8.00;;;;;13.47;55.08;100896.41;5054522;28;45703;-80
2022/02/17 10:44:32;;;;;;;;;6.75;4.00;;;;;13.52;55.51;100883.72;5059660;28;45456;-86
2022/02/17 10:47:25;;;;;;;;;9.25;5.00;;;;;13.42;55.25;100876.56;5061782;28;45626;-83
2022/02/17 10:49:53;;;;;;;;;10.25;5.75;;;;;13.54;55.03;100895.81;5046684;28;47414;-82
2022/02/17 10:52:34;;;;;;;;;10.25;5.50;;;;;13.48;55.03;100890.19;5066237;28;45555;-84
2022/02/17 10:55:18;;;;;;;;;6.00;4.00;;;;;13.58;55.29;100928.84;5059607;28;45718;-82
2022/02/17 10:57:44;;;;;;;;;3.75;3.00;;;;;13.46;55.29;100885.03;5061262;28;46877;-85
2022/02/17 11:00:13;;;;;;;;;7.75;4.00;;;;;13.60;54.61;100920.81;5059295;28;46210;-85
2022/02/17 11:02:39;;;;;;;;;9.00;5.00;;;;;13.59;54.48;100914.72;5061934;28;45499;-83
2022/02/17 11:05:07;;;;;;;;;4.75;3.50;;;;;13.66;54.32;100912.41;5061721;28;45499;-86
2022/02/17 11:07:35;;;;;;;;;4.00;3.00;;;;;13.60;53.82;100916.41;5060014;28;46397;-84
2022/02/17 11:10:01;;;;;;;;;10.75;6.00;;;;;13.67;53.55;100914.09;5061314;28;46196;-88
2022/02/17 11:12:27;;;;;;;;;13.75;6.00;;;;;13.66;54.16;100917.69;5057107;28;45877;-83
2022/02/17 11:14:56;;;;;;;;;11.00;4.75;;;;;13.65;54.27;100913.41;5058333;28;45840;-82
2022/02/17 11:17:23;;;;;;;;;4.75;3.75;;;;;13.74;54.45;100939.84;5058211;28;45766;-84
2022/02/17 11:19:49;;;;;;;;;6.75;3.00;;;;;13.77;53.56;100936.94;5058388;28;45952;-82
2022/02/17 11:22:16;;;;;;;;;5.25;3.25;;;;;13.74;54.12;100920.56;5054476;28;45609;-81
2022/02/17 11:24:52;;;;;;;;;4.50;3.50;;;;;13.70;52.92;100919.13;5054207;28;45590;-80
2022/02/17 11:27:19;;;;;;;;;4.75;4.00;;;;;13.79;54.08;100911.34;5054735;28;45677;-82
2022/02/17 11:29:45;;;;;;;;;4.50;4.25;;;;;13.81;53.36;100925.22;5054134;28;45458;-79
2022/02/17 11:32:14;;;;;;;;;5.50;3.00;;;;;13.81;53.49;100919.97;5054120;28;45620;-83
2022/02/17 11:34:42;;;;;;;;;8.75;5.75;;;;;13.71;53.35;100892.66;5054601;28;45681;-81
2022/02/17 11:37:22;;;;;;;;;5.25;3.25;;;;;13.84;53.64;100929.41;5053988;28;46641;-83
2022/02/17 11:40:05;;;;;;;;;4.25;4.25;;;;;13.84;53.45;100913.59;5053882;28;45938;-79
2022/02/17 11:42:35;;;;;;;;;9.75;4.00;;;;;13.86;52.85;100923.06;5055858;28;45859;-78
2022/02/17 11:45:20;;;;;;;;;8.25;3.75;;;;;13.83;51.58;100923.28;5058047;28;45736;-80
2022/02/17 11:48:05;;;;;;;;;5.75;4.75;;;;;13.83;51.17;100952.25;5057530;28;46929;-83
2022/02/17 11:50:45;;;;;;;;;7.25;2.00;;;;;13.78;51.13;100962.31;5057386;28;46955;-79
2022/02/17 11:53:29;;;;;;;;;6.00;4.00;;;;;13.81;50.99;100953.38;5057236;28;45548;-80
2022/02/17 11:58:40;;;;;;;;;4.50;3.00;;;;;13.80;50.75;100943.78;5039583;28;46242;-79
2022/02/17 12:01:24;;;;;;;;;3.75;1.25;;;;;13.77;50.74;100947.47;5058631;28;47016;-83
2022/02/17 12:04:17;;;;;;;;;6.25;2.25;;;;;13.76;50.41;100964.25;5060081;28;45447;-80
2022/02/17 12:06:51;;;;;;;;;4.50;4.00;;;;;13.73;49.87;100984.72;5057497;28;45570;-82
2022/02/17 12:12:38;;;;;;;;;3.75;2.50;;;;;13.74;50.31;100925.81;5056986;28;46021;-82
2022/02/17 12:15:06;;;;;;;;;4.25;3.00;;;;;13.72;50.84;100928.56;5057673;28;45642;-80
2022/02/17 12:17:37;;;;;;;;;7.25;2.75;;;;;13.73;49.96;100930.25;5057200;28;45660;-79
2022/02/17 12:20:18;;;;;;;;;6.25;2.25;;;;;13.76;49.81;100923.91;5057041;28;46582;-81
2022/02/17 12:23:07;;;;;;;;;3.50;1.50;;;;;13.82;50.30;100923.41;5039169;28;47202;-80
2022/02/17 12:28:54;;;;;;;;;3.50;2.00;;;;;13.68;50.61;100902.59;5063231;28;45527;-82
2022/02/17 12:31:36;;;;;;;;;4.00;2.00;;;;;13.82;50.49;100931.31;5057812;28;46572;-78
2022/02/17 12:34:04;;;;;;;;;5.25;2.00;;;;;13.84;50.14;100927.59;5057753;28;46315;-81
2022/02/17 12:36:38;;;;;;;;;5.00;3.50;;;;;13.86;50.22;100920.44;5067547;28;45572;-79
2022/02/17 12:39:05;;;;;;;;;3.50;2.75;;;;;13.86;49.81;100956.47;5049082;28;45811;-79
2022/02/17 12:41:30;;;;;;;;;4.00;3.50;;;;;13.92;49.68;100926.16;5062584;28;45575;-84
2022/02/17 12:43:56;;;;;;;;;3.00;1.75;;;;;13.98;49.92;100923.03;5065585;28;45504;-89
2022/02/17 12:46:21;;;;;;;;;5.25;3.25;;;;;14.00;49.07;100915.84;5070143;28;45486;-89
2022/02/17 12:48:47;;;;;;;;;3.25;2.50;;;;;14.05;49.14;100919.78;5072221;28;45365;-83
2022/02/17 12:51:24;;;;;;;;;5.25;3.00;;;;;14.09;48.99;100908.03;5060800;28;46654;-80